^^
No Wait Weather (KNEBELLE1) Station Historical Data
Daily Summary for May 18, 2019 Units:  English    Metric   Both
Daily Weekly Monthly Yearly Custom
  High: Low: Average:
Temperature: 76.3 °F 58.4 °F 67.1 °F
Dew Point: 63.29 °F 54.89 °F 59.9 °F
Humidity: 96% 56% 80%
Wind Speed: 13mph 0mph 0.7mph
Wind Gust: 18mph - -
Wind- - SSW
Pressure: 29.48 in 29.30 in -
Precipitation: 0.34 in    
Historical Graphs
 
 
Tabular Data for May 18, 2019
Time Temperature Dew Point Pressure Wind Wind Speed Wind Gust Humidity Rainfall Rate (Hourly) solar
00:04 74.7 °F 62.13 °F 29.38 in Calm   13 mph 65% 0 in WeatherCatV3.04B91 W/m2
00:09 74.6 °F 62.04 °F 29.38 in Calm   3 mph 65% 0 in WeatherCatV3.04B91 W/m2
00:14 74.6 °F 62.04 °F 29.38 in SW 1 mph 6 mph 65% 0 in WeatherCatV3.04B91 W/m2
00:19 74.6 °F 62.04 °F 29.38 in SW 3 mph 3 mph 65% 0 in WeatherCatV3.04B91 W/m2
00:24 74.6 °F 61.6 °F 29.38 in Calm   9 mph 64% 0 in WeatherCatV3.04B91 W/m2
00:29 74.4 °F 61.41 °F 29.38 in Calm   9 mph 64% 0 in WeatherCatV3.04B91 W/m2
00:34 74.4 °F 61.41 °F 29.38 in Calm   12 mph 64% 0 in WeatherCatV3.04B91 W/m2
00:39 74.4 °F 61.41 °F 29.38 in Calm   1 mph 64% 0 in WeatherCatV3.04B91 W/m2
00:44 74.2 °F 61.66 °F 29.38 in Calm   7 mph 65% 0 in WeatherCatV3.04B91 W/m2
00:49 74 °F 61.47 °F 29.38 in SW 1 mph 6 mph 65% 0 in WeatherCatV3.04B91 W/m2
00:54 73.9 °F 61.38 °F 29.38 in SW 1 mph 4 mph 65% 0 in WeatherCatV3.04B91 W/m2
00:59 73.9 °F 61.81 °F 29.38 in SW 3 mph 4 mph 66% 0 in WeatherCatV3.04B91 W/m2
01:04 73.7 °F 61.62 °F 29.38 in WSW 6 mph 11 mph 66% 0 in WeatherCatV3.04B91 W/m2
01:09 73.9 °F 61.38 °F 29.38 in WSW 4 mph 9 mph 65% 0 in WeatherCatV3.04B91 W/m2
01:14 73.9 °F 61.38 °F 29.38 in Calm   4 mph 65% 0 in WeatherCatV3.04B91 W/m2
01:19 73.9 °F 61.38 °F 29.37 in SW 2 mph 4 mph 65% 0 in WeatherCatV3.04B91 W/m2
01:24 73.9 °F 61.38 °F 29.37 in Calm   1 mph 65% 0 in WeatherCatV3.04B91 W/m2
01:29 73.9 °F 61.38 °F 29.37 in SSE 3 mph 3 mph 65% 0 in WeatherCatV3.04B91 W/m2
01:34 73.9 °F 60.94 °F 29.36 in Calm   4 mph 64% 0 in WeatherCatV3.04B91 W/m2
01:39 73.9 °F 60.94 °F 29.36 in SW 1 mph 2 mph 64% 0 in WeatherCatV3.04B91 W/m2
01:44 73.9 °F 60.94 °F 29.36 in South 13 mph 13 mph 64% 0 in WeatherCatV3.04B91 W/m2
01:49 73.7 °F 61.19 °F 29.34 in Calm   3 mph 65% 0 in WeatherCatV3.04B91 W/m2
01:54 73.7 °F 61.19 °F 29.34 in Calm   6 mph 65% 0 in WeatherCatV3.04B91 W/m2
01:59 73.5 °F 61 °F 29.34 in Calm   3 mph 65% 0 in WeatherCatV3.04B91 W/m2
02:04 73.3 °F 61.24 °F 29.34 in Calm   5 mph 66% 0 in WeatherCatV3.04B91 W/m2
02:09 73.3 °F 61.24 °F 29.34 in SW 5 mph 6 mph 66% 0 in WeatherCatV3.04B91 W/m2
02:14 73.3 °F 61.24 °F 29.34 in Calm   6 mph 66% 0 in WeatherCatV3.04B91 W/m2
02:19 73.2 °F 61.14 °F 29.34 in Calm   1 mph 66% 0 in WeatherCatV3.04B91 W/m2
02:24 73.2 °F 61.57 °F 29.34 in Calm   9 mph 67% 0 in WeatherCatV3.04B91 W/m2
02:29 73.2 °F 61.57 °F 29.34 in SW 1 mph 11 mph 67% 0 in WeatherCatV3.04B91 W/m2
02:34 73 °F 61.38 °F 29.35 in Calm   3 mph 67% 0 in WeatherCatV3.04B91 W/m2
02:39 73 °F 61.8 °F 29.35 in SW 10 mph 10 mph 68% 0 in WeatherCatV3.04B91 W/m2
02:44 72.8 °F 61.61 °F 29.35 in Calm   4 mph 68% 0 in WeatherCatV3.04B91 W/m2
02:49 72.8 °F 61.61 °F 29.35 in WSW 6 mph 6 mph 68% 0 in WeatherCatV3.04B91 W/m2
02:54 72.8 °F 61.61 °F 29.35 in Calm   7 mph 68% 0 in WeatherCatV3.04B91 W/m2
02:59 72.7 °F 61.51 °F 29.34 in SSW 1 mph 6 mph 68% 0 in WeatherCatV3.04B91 W/m2
03:04 72.7 °F 61.51 °F 29.34 in Calm   4 mph 68% 0 in WeatherCatV3.04B91 W/m2
03:09 72.7 °F 61.51 °F 29.34 in SW 3 mph 3 mph 68% 0 in WeatherCatV3.04B91 W/m2
03:14 72.7 °F 61.51 °F 29.35 in Calm     68% 0 in WeatherCatV3.04B91 W/m2
03:19 72.5 °F 61.32 °F 29.35 in Calm     68% 0 in WeatherCatV3.04B91 W/m2
03:24 72.1 °F 61.35 °F 29.35 in Calm     69% 0 in WeatherCatV3.04B91 W/m2
03:29 72 °F 61.26 °F 29.38 in Calm   5 mph 69% 0 in WeatherCatV3.04B91 W/m2
03:34 71.8 °F 61.07 °F 29.38 in SW 2 mph 2 mph 69% 0 in WeatherCatV3.04B91 W/m2
03:39 71.6 °F 59.63 °F 29.38 in Calm   5 mph 66% 0 in WeatherCatV3.04B91 W/m2
03:44 71.8 °F 58.95 °F 29.38 in SSW 2 mph 7 mph 64% 0 in WeatherCatV3.04B91 W/m2
03:49 71.5 °F 55.93 °F 29.39 in SSW 1 mph 9 mph 58% 0 in WeatherCatV3.04B91 W/m2
03:54 71.3 °F 55.27 °F 29.39 in South 1 mph 4 mph 57% 0 in WeatherCatV3.04B91 W/m2
03:59 70.9 °F 54.89 °F 29.39 in SW 6 mph 6 mph 57% 0 in WeatherCatV3.04B91 W/m2
04:04 70.4 °F 55.37 °F 29.42 in SSW 3 mph 13 mph 59% 0 in WeatherCatV3.04B91 W/m2
04:09 69.9 °F 55.83 °F 29.42 in Calm   13 mph 61% 0 in WeatherCatV3.04B91 W/m2
04:14 69.3 °F 56.59 °F 29.42 in Calm   10 mph 64% 0 in WeatherCatV3.04B91 W/m2
04:19 68.6 °F 57.19 °F 29.42 in WNW 5 mph 11 mph 67% 0 in WeatherCatV3.04B91 W/m2
04:24 67.8 °F 58.04 °F 29.42 in Calm   1 mph 71% 0 in WeatherCatV3.04B91 W/m2
04:29 67.1 °F 58.53 °F 29.41 in Calm   2 mph 74% 0 in WeatherCatV3.04B91 W/m2
04:34 66.4 °F 59.32 °F 29.41 in Calm   2 mph 78% 0.17 in WeatherCatV3.04B91 W/m2
04:39 65.8 °F 59.8 °F 29.41 in SW 4 mph 4 mph 81% 0.11 in WeatherCatV3.04B91 W/m2
04:44 65.3 °F 60.33 °F 29.42 in Calm   6 mph 84% 0.09 in WeatherCatV3.04B91 W/m2
04:49 65 °F 60.7 °F 29.42 in Calm   1 mph 86% 0.07 in WeatherCatV3.04B91 W/m2
04:54 64.7 °F 60.74 °F 29.42 in Calm   4 mph 87% 0.04 in WeatherCatV3.04B91 W/m2
04:59 64.5 °F 60.86 °F 29.42 in SSW 3 mph 4 mph 88% 0.04 in WeatherCatV3.04B91 W/m2
05:04 64.2 °F 60.88 °F 29.42 in WSW 2 mph 10 mph 89% 0.04 in WeatherCatV3.04B91 W/m2
05:09 63.9 °F 60.9 °F 29.42 in Calm   5 mph 90% 0.07 in WeatherCatV3.04B91 W/m2
05:14 63.7 °F 60.71 °F 29.42 in Calm   4 mph 90% 0.07 in WeatherCatV3.04B91 W/m2
05:19 63.5 °F 60.82 °F 29.42 in Calm   6 mph 91% 0.04 in WeatherCatV3.04B91 W/m2
05:24 63.4 °F 60.72 °F 29.42 in Calm     91% 0.04 in WeatherCatV3.04B91 W/m2
05:29 63.2 °F 60.83 °F 29.41 in Calm     92% 0.09 in WeatherCatV3.04B91 W/m2
05:34 63.1 °F 60.73 °F 29.41 in Calm     92% 0.15 in WeatherCatV3.04B91 W/m2
05:39 63.1 °F 60.73 °F 29.41 in Calm     92% 0.14 in WeatherCatV3.04B91 W/m2
05:44 62.9 °F 60.84 °F 29.41 in Calm     93% 0.09 in WeatherCatV3.04B91 W/m2
05:49 62.9 °F 60.84 °F 29.41 in Calm     93% 0.05 in WeatherCatV3.04B91 W/m2
05:54 62.7 °F 60.64 °F 29.41 in Calm   6 mph 93% 0.05 in WeatherCatV3.04B91 W/m2
05:59 62.6 °F 60.54 °F 29.41 in Calm     93% 0.14 in WeatherCatV3.04B91 W/m2
06:04 62.4 °F 60.35 °F 29.41 in Calm     93% 0.21 in WeatherCatV3.04B91 W/m2
06:09 62.3 °F 60.55 °F 29.41 in Calm     94% 0.15 in WeatherCatV3.04B91 W/m2
06:14 62.3 °F 60.55 °F 29.38 in Calm     94% 0.13 in WeatherCatV3.04B91 W/m2
06:19 62.1 °F 60.35 °F 29.38 in Calm     94% 0.09 in WeatherCatV3.04B91 W/m2
06:24 62 °F 60.25 °F 29.38 in SW 4 mph 4 mph 94% 0.08 in WeatherCatV3.04B91 W/m2
06:29 62 °F 60.25 °F 29.34 in Calm   2 mph 94% 0.06 in WeatherCatV3.04B91 W/m2
06:34 62 °F 60.55 °F 29.34 in Calm   2 mph 95% 0.06 in WeatherCatV3.04B91 W/m2
06:39 62 °F 60.55 °F 29.34 in Calm     95% 0.05 in WeatherCatV3.04B91 W/m2
06:44 62 °F 60.55 °F 29.33 in Calm     95% 0 in WeatherCatV3.04B91 W/m2
06:49 61.8 °F 60.35 °F 29.33 in Calm     95% 0 in WeatherCatV3.04B91 W/m2
06:54 61.8 °F 60.35 °F 29.33 in SSW 4 mph 4 mph 95% 0 in WeatherCatV3.04B91 W/m2
06:59 61.8 °F 60.35 °F 29.33 in Calm   5 mph 95% 0 in WeatherCatV3.04B91 W/m2
07:04 61.8 °F 60.35 °F 29.35 in Calm   4 mph 95% 0 in WeatherCatV3.04B91 W/m2
07:09 61.8 °F 60.35 °F 29.35 in SW 3 mph 3 mph 95% 0 in WeatherCatV3.04B91 W/m2
07:14 61.8 °F 60.35 °F 29.34 in Calm     95% 0 in WeatherCatV3.04B91 W/m2
07:19 61.6 °F 60.15 °F 29.34 in Calm   3 mph 95% 0 in WeatherCatV3.04B91 W/m2
07:24 61.6 °F 60.15 °F 29.34 in Calm   2 mph 95% 0 in WeatherCatV3.04B91 W/m2
07:29 61.6 °F 60.15 °F 29.34 in Calm   4 mph 95% 0 in WeatherCatV3.04B91 W/m2
07:34 61.6 °F 60.15 °F 29.34 in SSE 1 mph 4 mph 95% 0 in WeatherCatV3.04B91 W/m2
07:39 61.6 °F 60.15 °F 29.34 in Calm     95% 0 in WeatherCatV3.04B91 W/m2
07:44 61.8 °F 60.05 °F 29.34 in Calm     94% 0 in WeatherCatV3.04B91 W/m2
07:49 61.8 °F 60.05 °F 29.30 in Calm     94% 0 in WeatherCatV3.04B91 W/m2
07:54 62 °F 60.25 °F 29.30 in Calm     94% 0 in WeatherCatV3.04B91 W/m2
07:59 62 °F 60.25 °F 29.32 in Calm   4 mph 94% 0 in WeatherCatV3.04B91 W/m2
08:04 62.1 °F 60.05 °F 29.32 in Calm     93% 0 in WeatherCatV3.04B91 W/m2
08:09 62.3 °F 60.25 °F 29.32 in Calm   5 mph 93% 0 in WeatherCatV3.04B91 W/m2
08:14 62.6 °F 60.54 °F 29.32 in Calm     93% 0 in WeatherCatV3.04B91 W/m2
08:19 63.4 °F 61.34 °F 29.34 in Calm   1 mph 93% 0 in WeatherCatV3.04B91 W/m2
08:24 64 °F 61.62 °F 29.34 in Calm     92% 0 in WeatherCatV3.04B91 W/m2
08:29 64.7 °F 62.01 °F 29.39 in Calm   1 mph 91% 0 in WeatherCatV3.04B91 W/m2
08:34 65 °F 61.67 °F 29.39 in Calm   3 mph 89% 0 in WeatherCatV3.04B91 W/m2
08:39 65.3 °F 61.32 °F 29.39 in Calm     87% 0 in WeatherCatV3.04B91 W/m2
08:44 66 °F 61.02 °F 29.39 in Calm   9 mph 84% 0 in WeatherCatV3.04B91 W/m2
08:49 66.4 °F 60.73 °F 29.39 in Calm   4 mph 82% 0 in WeatherCatV3.04B91 W/m2
08:54 66.8 °F 60.42 °F 29.39 in Calm   4 mph 80% 0 in WeatherCatV3.04B91 W/m2
08:59 67.1 °F 60 °F 29.38 in Calm     78% 0 in WeatherCatV3.04B91 W/m2
09:04 67.4 °F 59.93 °F 29.38 in Calm   4 mph 77% 0 in WeatherCatV3.04B91 W/m2
09:09 67.6 °F 59.38 °F 29.38 in Calm   7 mph 75% 0 in WeatherCatV3.04B91 W/m2
09:14 67.9 °F 58.53 °F 29.38 in Calm   1 mph 72% 0 in WeatherCatV3.04B91 W/m2
09:19 68.4 °F 58.62 °F 29.38 in SW 4 mph 5 mph 71% 0 in WeatherCatV3.04B91 W/m2
09:24 68.8 °F 58.2 °F 29.38 in Calm   7 mph 69% 0 in WeatherCatV3.04B91 W/m2
09:29 69.3 °F 58.27 °F 29.38 in Calm   6 mph 68% 0 in WeatherCatV3.04B91 W/m2
09:34 69.8 °F 58.34 °F 29.38 in Calm   6 mph 67% 0 in WeatherCatV3.04B91 W/m2
09:39 70.1 °F 58.62 °F 29.38 in Calm   2 mph 67% 0 in WeatherCatV3.04B91 W/m2
09:44 70.6 °F 57.82 °F 29.38 in Calm   13 mph 64% 0 in WeatherCatV3.04B91 W/m2
09:49 70.8 °F 57.57 °F 29.38 in Calm   5 mph 63% 0 in WeatherCatV3.04B91 W/m2
09:54 71.1 °F 57.41 °F 29.38 in Calm   5 mph 62% 0 in WeatherCatV3.04B91 W/m2
09:59 71.1 °F 56.95 °F 29.38 in Calm   12 mph 61% 0 in WeatherCatV3.04B91 W/m2
10:04 71.5 °F 57.33 °F 29.38 in Calm   7 mph 61% 0 in WeatherCatV3.04B91 W/m2
10:09 71.6 °F 56.96 °F 29.38 in SSW 1 mph 5 mph 60% 0 in WeatherCatV3.04B91 W/m2
10:14 72 °F 57.8 °F 29.38 in SW 1 mph 14 mph 61% 0 in WeatherCatV3.04B91 W/m2
10:19 72.1 °F 56.97 °F 29.38 in Calm   15 mph 59% 0 in WeatherCatV3.04B91 W/m2
10:24 72.1 °F 57.43 °F 29.38 in Calm   10 mph 60% 0 in WeatherCatV3.04B91 W/m2
10:29 72.3 °F 57.62 °F 29.38 in Calm   7 mph 60% 0 in WeatherCatV3.04B91 W/m2
10:34 72.3 °F 57.15 °F 29.39 in Calm   12 mph 59% 0 in WeatherCatV3.04B91 W/m2
10:39 72.5 °F 58.27 °F 29.39 in Calm   4 mph 61% 0 in WeatherCatV3.04B91 W/m2
10:44 72.8 °F 57.62 °F 29.39 in SW 4 mph 9 mph 59% 0 in WeatherCatV3.04B91 W/m2
10:49 72.8 °F 58.09 °F 29.39 in SW 5 mph 13 mph 60% 0 in WeatherCatV3.04B91 W/m2
10:54 72.8 °F 58.09 °F 29.39 in Calm   2 mph 60% 0 in WeatherCatV3.04B91 W/m2
10:59 73 °F 57.81 °F 29.39 in SSW 2 mph 9 mph 59% 0 in WeatherCatV3.04B91 W/m2
11:04 73.2 °F 58.47 °F 29.39 in SSW 4 mph 5 mph 60% 0 in WeatherCatV3.04B91 W/m2
11:09 73.2 °F 58 °F 29.39 in Calm   5 mph 59% 0 in WeatherCatV3.04B91 W/m2
11:14 73.3 °F 57.61 °F 29.40 in Calm   12 mph 58% 0 in WeatherCatV3.04B91 W/m2
11:19 73.5 °F 58.75 °F 29.40 in SSW 3 mph 4 mph 60% 0 in WeatherCatV3.04B91 W/m2
11:24 73.5 °F 58.28 °F 29.40 in SW 3 mph 3 mph 59% 0 in WeatherCatV3.04B91 W/m2
11:29 73.7 °F 58.93 °F 29.40 in SSE 2 mph 7 mph 60% 0 in WeatherCatV3.04B91 W/m2
11:34 74 °F 59.22 °F 29.39 in SW 4 mph 10 mph 60% 0 in WeatherCatV3.04B91 W/m2
11:39 74.4 °F 59.12 °F 29.39 in WSW 1 mph 3 mph 59% 0 in WeatherCatV3.04B91 W/m2
11:44 74.6 °F 59.31 °F 29.39 in SW 2 mph 9 mph 59% 0 in WeatherCatV3.04B91 W/m2
11:49 74.9 °F 59.59 °F 29.38 in Calm   7 mph 59% 0 in WeatherCatV3.04B91 W/m2
11:54 75.1 °F 59.3 °F 29.38 in SW 3 mph 7 mph 58% 0 in WeatherCatV3.04B91 W/m2
11:59 75.3 °F 59.48 °F 29.39 in SW 6 mph 11 mph 58% 0 in WeatherCatV3.04B91 W/m2
12:04 75.4 °F 59.58 °F 29.39 in SSW 10 mph 18 mph 58% 0 in WeatherCatV3.04B91 W/m2
12:09 75.8 °F 59.46 °F 29.39 in SW 2 mph 2 mph 57% 0 in WeatherCatV3.04B91 W/m2
12:14 75.8 °F 58.96 °F 29.38 in SW 1 mph 9 mph 56% 0 in WeatherCatV3.04B91 W/m2
12:19 75.8 °F 59.46 °F 29.38 in SSE 1 mph 12 mph 57% 0 in WeatherCatV3.04B91 W/m2
12:24 75.8 °F 59.95 °F 29.38 in SW 1 mph 6 mph 58% 0 in WeatherCatV3.04B91 W/m2
12:29 76 °F 60.14 °F 29.38 in Calm   11 mph 58% 0 in WeatherCatV3.04B91 W/m2
12:34 76.3 °F 60.42 °F 29.38 in SSE 6 mph 7 mph 58% 0 in WeatherCatV3.04B91 W/m2
12:39 76.1 °F 59.74 °F 29.38 in Calm   5 mph 57% 0 in WeatherCatV3.04B91 W/m2
12:44 76 °F 60.14 °F 29.38 in SSE 1 mph 6 mph 58% 0 in WeatherCatV3.04B91 W/m2
12:49 75.8 °F 60.43 °F 29.38 in Calm   11 mph 59% 0 in WeatherCatV3.04B91 W/m2
12:54 75.8 °F 60.43 °F 29.38 in Calm   4 mph 59% 0 in WeatherCatV3.04B91 W/m2
12:59 75.6 °F 60.72 °F 29.38 in Calm   7 mph 60% 0 in WeatherCatV3.04B91 W/m2
13:04 75.4 °F 60.06 °F 29.39 in Calm   9 mph 59% 0 in WeatherCatV3.04B91 W/m2
13:09 75.3 °F 60.9 °F 29.39 in Calm   3 mph 61% 0 in WeatherCatV3.04B91 W/m2
13:14 75.1 °F 60.71 °F 29.39 in Calm   5 mph 61% 0 in WeatherCatV3.04B91 W/m2
13:19 75.1 °F 60.71 °F 29.39 in Calm   6 mph 61% 0 in WeatherCatV3.04B91 W/m2
13:24 74.9 °F 60.98 °F 29.39 in Calm   4 mph 62% 0 in WeatherCatV3.04B91 W/m2
13:29 74.9 °F 60.98 °F 29.38 in Calm   7 mph 62% 0 in WeatherCatV3.04B91 W/m2
13:34 74.7 °F 60.34 °F 29.38 in SW 3 mph 7 mph 61% 0 in WeatherCatV3.04B91 W/m2
13:39 74.6 °F 60.7 °F 29.38 in Calm   4 mph 62% 0 in WeatherCatV3.04B91 W/m2
13:44 74.4 °F 60.51 °F 29.38 in SW 2 mph 10 mph 62% 0 in WeatherCatV3.04B91 W/m2
13:49 74 °F 60.59 °F 29.39 in WSW 6 mph 11 mph 63% 0 in WeatherCatV3.04B91 W/m2
13:54 73.7 °F 60.75 °F 29.39 in Calm   1 mph 64% 0 in WeatherCatV3.04B91 W/m2
13:59 73.3 °F 60.81 °F 29.39 in Calm   7 mph 65% 0 in WeatherCatV3.04B91 W/m2
14:04 73 °F 60.52 °F 29.39 in Calm   10 mph 65% 0 in WeatherCatV3.04B91 W/m2
14:09 72.8 °F 60.76 °F 29.39 in South 4 mph 11 mph 66% 0 in WeatherCatV3.04B91 W/m2
14:14 72.5 °F 60.9 °F 29.38 in SW 3 mph 3 mph 67% 0 in WeatherCatV3.04B91 W/m2
14:19 72.3 °F 60.71 °F 29.38 in Calm   5 mph 67% 0 in WeatherCatV3.04B91 W/m2
14:24 72.1 °F 60.52 °F 29.38 in Calm   9 mph 67% 0 in WeatherCatV3.04B91 W/m2
14:29 72 °F 60.85 °F 29.40 in Calm   6 mph 68% 0 in WeatherCatV3.04B91 W/m2
14:34 72 °F 60.85 °F 29.40 in Calm   5 mph 68% 0 in WeatherCatV3.04B91 W/m2
14:39 71.8 °F 61.07 °F 29.40 in Calm     69% 0 in WeatherCatV3.04B91 W/m2
14:44 71.8 °F 61.07 °F 29.40 in Calm     69% 0 in WeatherCatV3.04B91 W/m2
14:49 71.6 °F 61.28 °F 29.43 in Calm   6 mph 70% 0 in WeatherCatV3.04B91 W/m2
14:54 71.6 °F 61.28 °F 29.43 in Calm     70% 0 in WeatherCatV3.04B91 W/m2
14:59 71.5 °F 61.59 °F 29.43 in Calm     71% 0 in WeatherCatV3.04B91 W/m2
15:04 71.5 °F 61.59 °F 29.43 in Calm   5 mph 71% 0 in WeatherCatV3.04B91 W/m2
15:09 71.3 °F 61.79 °F 29.43 in Calm     72% 0 in WeatherCatV3.04B91 W/m2
15:14 71.1 °F 62.38 °F 29.43 in Calm     74% 0 in WeatherCatV3.04B91 W/m2
15:19 70.8 °F 62.85 °F 29.43 in Calm   3 mph 76% 0 in WeatherCatV3.04B91 W/m2
15:24 70.3 °F 63.1 °F 29.43 in Calm   3 mph 78% 0 in WeatherCatV3.04B91 W/m2
15:29 69.8 °F 62.98 °F 29.43 in Calm     79% 0 in WeatherCatV3.04B91 W/m2
15:34 69.4 °F 62.95 °F 29.43 in Calm     80% 0 in WeatherCatV3.04B91 W/m2
15:39 69.1 °F 63.01 °F 29.43 in Calm   5 mph 81% 0 in WeatherCatV3.04B91 W/m2
15:44 68.6 °F 63.22 °F 29.41 in Calm     83% 0 in WeatherCatV3.04B91 W/m2
15:49 68.3 °F 63.27 °F 29.41 in Calm   4 mph 84% 0 in WeatherCatV3.04B91 W/m2
15:54 67.8 °F 62.78 °F 29.41 in Calm     84% 0 in WeatherCatV3.04B91 W/m2
15:59 67.6 °F 62.92 °F 29.41 in Calm     85% 0 in WeatherCatV3.04B91 W/m2
16:04 67.4 °F 63.06 °F 29.41 in Calm     86% 0 in WeatherCatV3.04B91 W/m2
16:09 67.3 °F 63.29 °F 29.41 in ESE 3 mph 6 mph 87% 0 in WeatherCatV3.04B91 W/m2
16:14 66.8 °F 63.12 °F 29.41 in East 1 mph 1 mph 88% 0 in WeatherCatV3.04B91 W/m2
16:19 66.4 °F 63.05 °F 29.41 in Calm   3 mph 89% 0 in WeatherCatV3.04B91 W/m2
16:24 66.1 °F 62.76 °F 29.41 in Calm   1 mph 89% 0 in WeatherCatV3.04B91 W/m2
16:29 65.6 °F 62.58 °F 29.40 in Calm   7 mph 90% 0 in WeatherCatV3.04B91 W/m2
16:34 65.2 °F 62.19 °F 29.40 in Calm     90% 0 in WeatherCatV3.04B91 W/m2
16:39 64.8 °F 61.79 °F 29.40 in Calm   7 mph 90% 0 in WeatherCatV3.04B91 W/m2
16:44 64.5 °F 61.81 °F 29.40 in Calm   9 mph 91% 0 in WeatherCatV3.04B91 W/m2
16:49 64 °F 61.32 °F 29.40 in WSW 1 mph 4 mph 91% 0 in WeatherCatV3.04B91 W/m2
16:54 63.7 °F 61.02 °F 29.40 in Calm     91% 0 in WeatherCatV3.04B91 W/m2
16:59 63.5 °F 60.82 °F 29.41 in Calm   5 mph 91% 0 in WeatherCatV3.04B91 W/m2
17:04 62.9 °F 60.23 °F 29.41 in Calm   1 mph 91% 0 in WeatherCatV3.04B91 W/m2
17:09 62.7 °F 59.72 °F 29.41 in Calm   3 mph 90% 0.04 in WeatherCatV3.04B91 W/m2
17:14 62.7 °F 60.03 °F 29.41 in Calm     91% 0.04 in WeatherCatV3.04B91 W/m2
17:19 62.7 °F 60.03 °F 29.43 in Calm     91% 0.04 in WeatherCatV3.04B91 W/m2
17:24 62.7 °F 60.03 °F 29.43 in Calm     91% 0 in WeatherCatV3.04B91 W/m2
17:29 62.4 °F 59.73 °F 29.42 in Calm     91% 0 in WeatherCatV3.04B91 W/m2
17:34 62.3 °F 59.64 °F 29.42 in Calm     91% 0 in WeatherCatV3.04B91 W/m2
17:39 62.3 °F 59.64 °F 29.42 in Calm     91% 0 in WeatherCatV3.04B91 W/m2
17:44 62.3 °F 59.64 °F 29.42 in Calm     91% 0 in WeatherCatV3.04B91 W/m2
17:49 62.3 °F 59.64 °F 29.42 in Calm     91% 0.04 in WeatherCatV3.04B91 W/m2
17:54 62.3 °F 59.64 °F 29.42 in Calm     91% 0.1 in WeatherCatV3.04B91 W/m2
17:59 62.3 °F 59.64 °F 29.42 in Calm     91% 0.11 in WeatherCatV3.04B91 W/m2
18:04 62.3 °F 59.64 °F 29.42 in Calm     91% 0.13 in WeatherCatV3.04B91 W/m2
18:09 62.1 °F 59.44 °F 29.42 in Calm     91% 0.09 in WeatherCatV3.04B91 W/m2
18:14 62.1 °F 59.74 °F 29.43 in Calm     92% 0.09 in WeatherCatV3.04B91 W/m2
18:19 62.3 °F 59.94 °F 29.43 in Calm     92% 0.08 in WeatherCatV3.04B91 W/m2
18:24 62.3 °F 59.94 °F 29.43 in Calm     92% 0.07 in WeatherCatV3.04B91 W/m2
18:29 62.1 °F 59.74 °F 29.42 in Calm     92% 0.06 in WeatherCatV3.04B91 W/m2
18:34 62.1 °F 59.74 °F 29.42 in Calm     92% 0.06 in WeatherCatV3.04B91 W/m2
18:39 62.1 °F 60.05 °F 29.42 in Calm     93% 0.04 in WeatherCatV3.04B91 W/m2
18:44 62.3 °F 60.25 °F 29.44 in Calm     93% 0.04 in WeatherCatV3.04B91 W/m2
18:49 62.3 °F 60.25 °F 29.44 in Calm     93% 0.04 in WeatherCatV3.04B91 W/m2
18:54 62.1 °F 60.05 °F 29.44 in Calm     93% 0.04 in WeatherCatV3.04B91 W/m2
18:59 62.1 °F 60.35 °F 29.44 in Calm     94% 0 in WeatherCatV3.04B91 W/m2
19:04 62 °F 60.25 °F 29.44 in Calm     94% 0 in WeatherCatV3.04B91 W/m2
19:09 61.8 °F 60.05 °F 29.44 in Calm     94% 0 in WeatherCatV3.04B91 W/m2
19:14 61.8 °F 60.05 °F 29.44 in Calm     94% 0 in WeatherCatV3.04B91 W/m2
19:19 61.8 °F 60.05 °F 29.44 in Calm     94% 0 in WeatherCatV3.04B91 W/m2
19:24 61.8 °F 60.05 °F 29.44 in Calm     94% 0.04 in WeatherCatV3.04B91 W/m2
19:29 61.6 °F 59.85 °F 29.46 in Calm     94% 0.04 in WeatherCatV3.04B91 W/m2
19:34 61.5 °F 59.75 °F 29.46 in Calm     94% 0.04 in WeatherCatV3.04B91 W/m2
19:39 61.3 °F 59.85 °F 29.46 in Calm     95% 0.04 in WeatherCatV3.04B91 W/m2
19:44 61.3 °F 59.85 °F 29.44 in Calm     95% 0 in WeatherCatV3.04B91 W/m2
19:49 61 °F 59.26 °F 29.44 in Calm   2 mph 94% 0 in WeatherCatV3.04B91 W/m2
19:54 60.9 °F 59.16 °F 29.44 in Calm     94% 0 in WeatherCatV3.04B91 W/m2
19:59 60.7 °F 58.96 °F 29.44 in Calm     94% 0 in WeatherCatV3.04B91 W/m2
20:04 60.7 °F 59.26 °F 29.42 in Calm   3 mph 95% 0 in WeatherCatV3.04B91 W/m2
20:09 60.5 °F 58.76 °F 29.42 in Calm     94% 0 in WeatherCatV3.04B91 W/m2
20:14 60.2 °F 58.46 °F 29.40 in Calm     94% 0 in WeatherCatV3.04B91 W/m2
20:19 60.2 °F 58.46 °F 29.40 in Calm     94% 0 in WeatherCatV3.04B91 W/m2
20:24 60.2 °F 58.46 °F 29.40 in Calm     94% 0 in WeatherCatV3.04B91 W/m2
20:29 60.1 °F 58.36 °F 29.40 in Calm     94% 0 in WeatherCatV3.04B91 W/m2
20:34 60.1 °F 58.66 °F 29.40 in Calm     95% 0 in WeatherCatV3.04B91 W/m2
20:39 60.1 °F 58.66 °F 29.40 in Calm     95% 0 in WeatherCatV3.04B91 W/m2
20:44 60.1 °F 58.66 °F 29.42 in Calm     95% 0 in WeatherCatV3.04B91 W/m2
20:49 59.8 °F 58.36 °F 29.42 in Calm     95% 0 in WeatherCatV3.04B91 W/m2
20:54 59.8 °F 58.36 °F 29.42 in Calm     95% 0 in WeatherCatV3.04B91 W/m2
20:59 59.8 °F 58.36 °F 29.43 in Calm     95% 0 in WeatherCatV3.04B91 W/m2
21:04 59.8 °F 58.36 °F 29.43 in Calm     95% 0 in WeatherCatV3.04B91 W/m2
21:09 59.6 °F 58.16 °F 29.43 in Calm     95% 0 in WeatherCatV3.04B91 W/m2
21:14 59.6 °F 58.16 °F 29.43 in Calm     95% 0 in WeatherCatV3.04B91 W/m2
21:19 59.5 °F 58.06 °F 29.43 in Calm     95% 0 in WeatherCatV3.04B91 W/m2
21:24 59.5 °F 58.06 °F 29.43 in Calm     95% 0 in WeatherCatV3.04B91 W/m2
21:29 59.5 °F 58.06 °F 29.43 in Calm     95% 0 in WeatherCatV3.04B91 W/m2
21:34 59.6 °F 58.46 °F 29.43 in Calm     96% 0 in WeatherCatV3.04B91 W/m2
21:39 59.6 °F 58.46 °F 29.43 in Calm     96% 0 in WeatherCatV3.04B91 W/m2
21:44 59.6 °F 58.46 °F 29.44 in Calm     96% 0 in WeatherCatV3.04B91 W/m2
21:49 59.6 °F 58.46 °F 29.44 in Calm     96% 0 in WeatherCatV3.04B91 W/m2
21:54 59.6 °F 58.46 °F 29.44 in Calm     96% 0 in WeatherCatV3.04B91 W/m2
21:59 59.6 °F 58.46 °F 29.45 in Calm     96% 0 in WeatherCatV3.04B91 W/m2
22:04 59.6 °F 58.46 °F 29.45 in Calm     96% 0 in WeatherCatV3.04B91 W/m2
22:09 59.6 °F 58.46 °F 29.45 in Calm     96% 0 in WeatherCatV3.04B91 W/m2
22:14 59.6 °F 58.46 °F 29.46 in Calm     96% 0 in WeatherCatV3.04B91 W/m2
22:19 59.6 °F 58.46 °F 29.46 in Calm     96% 0 in WeatherCatV3.04B91 W/m2
22:24 59.5 °F 58.36 °F 29.46 in Calm     96% 0 in WeatherCatV3.04B91 W/m2
22:29 59.5 °F 58.36 °F 29.46 in Calm     96% 0 in WeatherCatV3.04B91 W/m2
22:34 59.5 °F 58.36 °F 29.46 in Calm     96% 0 in WeatherCatV3.04B91 W/m2
22:39 59.3 °F 58.16 °F 29.46 in Calm     96% 0 in WeatherCatV3.04B91 W/m2
22:44 59.3 °F 58.16 °F 29.47 in Calm     96% 0 in WeatherCatV3.04B91 W/m2
22:49 59.3 °F 58.16 °F 29.47 in Calm     96% 0 in WeatherCatV3.04B91 W/m2
22:54 59.2 °F 58.06 °F 29.47 in Calm     96% 0 in WeatherCatV3.04B91 W/m2
22:59 59.2 °F 58.06 °F 29.48 in Calm     96% 0 in WeatherCatV3.04B91 W/m2
23:04 59.2 °F 58.06 °F 29.48 in Calm     96% 0 in WeatherCatV3.04B91 W/m2
23:09 59 °F 57.86 °F 29.48 in Calm     96% 0 in WeatherCatV3.04B91 W/m2
23:14 59 °F 57.86 °F 29.46 in Calm     96% 0 in WeatherCatV3.04B91 W/m2
23:19 58.9 °F 57.76 °F 29.46 in Calm     96% 0 in WeatherCatV3.04B91 W/m2
23:24 58.9 °F 57.76 °F 29.46 in Calm     96% 0 in WeatherCatV3.04B91 W/m2
23:29 58.7 °F 57.56 °F 29.44 in Calm     96% 0 in WeatherCatV3.04B91 W/m2
23:34 58.7 °F 57.56 °F 29.44 in Calm     96% 0 in WeatherCatV3.04B91 W/m2
23:39 58.6 °F 57.46 °F 29.44 in Calm     96% 0 in WeatherCatV3.04B91 W/m2
23:44 58.6 °F 57.46 °F 29.43 in Calm     96% 0 in WeatherCatV3.04B91 W/m2
23:49 58.4 °F 57.26 °F 29.43 in Calm     96% 0 in WeatherCatV3.04B91 W/m2
23:54 58.4 °F 57.26 °F 29.43 in Calm     96% 0 in WeatherCatV3.04B91 W/m2
23:59 58.4 °F 57.26 °F 29.43 in Calm     96% 0 in WeatherCatV3.04B91 W/m2
Bellevue, Nebraska, USA
Compliments of Weather Underground - 3.25 mb